Time;durP1;ratioP1;P1;durP2;ratioP2;P2;SDS_P1;SDS_P2;PMS_P1;PMS_P2;Temp;Humidity;BMP_temperature;BMP_pressure;BME280_temperature;BME280_humidity;BME280_pressure;Samples;Min_cycle;Max_cycle;Signal;HPM_P1;HPM_P2
2022/07/06 00:01:03;;;;;;;1.73;1.63;;;;;;;15.70;53.48;101205.41;1652832;85;20983;-79
2022/07/06 00:03:29;;;;;;;3.85;1.72;;;;;;;15.67;53.52;101209.41;1652992;86;21081;-79
2022/07/06 00:05:55;;;;;;;2.90;1.70;;;;;;;15.61;53.62;101217.39;1642448;86;21010;-79
2022/07/06 00:08:21;;;;;;;1.97;1.80;;;;;;;15.55;53.72;101213.20;1626601;86;21073;-79
2022/07/06 00:10:49;;;;;;;2.52;2.25;;;;;;;15.53;53.86;101209.78;1628008;86;21817;-79
2022/07/06 00:13:15;;;;;;;1.82;1.72;;;;;;;15.53;53.94;101210.23;1662591;85;21147;-79
2022/07/06 00:15:42;;;;;;;1.83;1.67;;;;;;;15.49;54.03;101213.36;1638877;86;21719;-79
2022/07/06 00:18:14;;;;;;;2.62;1.80;;;;;;;15.42;54.13;101197.48;1630323;87;21001;-78
2022/07/06 00:20:40;;;;;;;2.10;1.87;;;;;;;15.48;54.19;101208.19;1649953;86;20997;-78
2022/07/06 00:23:06;;;;;;;1.72;1.62;;;;;;;15.42;54.25;101210.95;1653482;86;21121;-78
2022/07/06 00:25:32;;;;;;;2.25;1.80;;;;;;;15.39;54.35;101200.61;1653222;85;21590;-78
2022/07/06 00:27:58;;;;;;;3.43;1.80;;;;;;;15.40;54.43;101199.72;1608731;87;20998;-78
2022/07/06 00:30:24;;;;;;;2.20;2.00;;;;;;;15.41;54.47;101199.68;1632377;86;20918;-78
2022/07/06 00:32:50;;;;;;;3.37;1.73;;;;;;;15.36;54.55;101201.55;1633177;87;21040;-78
2022/07/06 00:35:16;;;;;;;2.30;2.10;;;;;;;15.30;54.63;101200.41;1645320;86;21449;-78
2022/07/06 00:37:43;;;;;;;3.70;2.10;;;;;;;15.26;54.70;101203.13;1633000;87;21125;-78
2022/07/06 00:40:10;;;;;;;2.37;2.17;;;;;;;15.25;54.85;101203.58;1634802;86;21069;-78
2022/07/06 00:42:45;;;;;;;3.12;2.08;;;;;;;15.17;54.82;101202.47;1643966;85;21628;-78
2022/07/06 00:45:14;;;;;;;2.20;1.80;;;;;;;15.10;54.92;101205.27;1634359;86;20974;-78
2022/07/06 00:47:42;;;;;;;2.30;2.05;;;;;;;15.06;55.04;101203.66;1634440;86;20985;-79
2022/07/06 00:50:15;;;;;;;2.20;2.00;;;;;;;15.05;55.21;101205.41;1634951;87;20966;-79
2022/07/06 00:52:48;;;;;;;3.10;2.10;;;;;;;15.06;55.24;101204.52;1634419;87;20958;-79
2022/07/06 00:55:24;;;;;;;3.25;2.25;;;;;;;15.01;55.32;101206.38;1646681;86;20934;-79
2022/07/06 00:57:51;;;;;;;2.83;2.25;;;;;;;15.01;55.41;101202.92;1632651;87;21084;-79
2022/07/06 01:00:22;;;;;;;4.90;2.12;;;;;;;14.99;55.55;101202.11;1633474;86;21069;-79
2022/07/06 01:02:56;;;;;;;3.33;2.30;;;;;;;15.01;55.58;101200.32;1634489;86;21080;-79
2022/07/06 01:05:23;;;;;;;2.30;2.10;;;;;;;14.98;55.70;101207.77;1643703;86;21506;-79
2022/07/06 01:07:52;;;;;;;2.52;2.27;;;;;;;15.02;55.76;101210.70;1634716;87;20977;-79
2022/07/06 01:10:22;;;;;;;3.52;2.00;;;;;;;15.03;55.74;101218.92;1640502;86;20902;-79
2022/07/06 01:12:49;;;;;;;4.53;1.67;;;;;;;14.99;55.84;101213.37;1658870;86;20949;-79
2022/07/06 01:15:22;;;;;;;3.22;1.72;;;;;;;14.93;55.80;101206.16;1668963;85;21055;-79
2022/07/06 01:17:51;;;;;;;2.27;2.07;;;;;;;14.82;55.90;101207.27;1658197;86;20922;-79
2022/07/06 01:20:22;;;;;;;;;;;;;;;14.75;55.94;101213.96;1664324;86;21604;-79
2022/07/06 01:22:50;;;;;;;6.08;2.40;;;;;;;14.71;56.59;101207.12;1661466;86;20101;-79
2022/07/06 01:25:17;;;;;;;2.40;2.02;;;;;;;14.70;56.10;101215.81;1651478;85;20999;-79
2022/07/06 01:27:43;;;;;;;3.58;2.00;;;;;;;14.64;56.10;101212.91;1645156;86;21112;-79
2022/07/06 01:30:13;;;;;;;2.15;2.00;;;;;;;14.58;56.20;101211.75;1627696;86;20942;-79
2022/07/06 01:32:44;;;;;;;3.22;1.92;;;;;;;14.53;56.24;101212.33;1622294;86;20911;-79
2022/07/06 01:35:14;;;;;;;2.60;2.40;;;;;;;14.42;56.33;101213.88;1600635;88;21467;-79
2022/07/06 01:37:41;;;;;;;2.12;1.92;;;;;;;14.40;56.49;101210.41;1628012;86;20946;-79
2022/07/06 01:40:14;;;;;;;3.62;2.02;;;;;;;14.41;56.56;101212.57;1596873;88;20951;-79
2022/07/06 01:42:40;;;;;;;2.85;2.22;;;;;;;14.40;56.59;101216.06;1649954;86;20935;-79
2022/07/06 01:45:08;;;;;;;3.75;2.00;;;;;;;14.32;56.66;101207.13;1619376;87;21347;-79
2022/07/06 01:47:34;;;;;;;1.95;1.85;;;;;;;14.31;56.79;101211.06;1635643;87;20915;-79
2022/07/06 01:50:05;;;;;;;3.70;2.20;;;;;;;14.33;56.86;101206.23;1606491;87;21468;-79
2022/07/06 01:52:31;;;;;;;2.33;2.10;;;;;;;14.31;56.89;101210.61;1626143;86;20927;-79
2022/07/06 01:54:57;;;;;;;2.07;1.67;;;;;;;14.30;56.90;101210.20;1598625;88;20951;-79
2022/07/06 01:57:23;;;;;;;2.80;2.27;;;;;;;14.26;57.02;101204.66;1638515;86;20951;-79
2022/07/06 01:59:49;;;;;;;1.83;1.73;;;;;;;14.23;57.04;101204.27;1605863;88;20910;-79
2022/07/06 02:02:17;;;;;;;5.45;2.33;;;;;;;14.14;57.00;101201.87;1666585;84;21030;-79
2022/07/06 02:04:43;;;;;;;2.27;2.10;;;;;;;14.03;57.13;101207.77;1664355;84;21435;-79
2022/07/06 02:07:09;;;;;;;3.07;2.30;;;;;;;14.02;57.33;101211.26;1688472;84;21282;-79
2022/07/06 02:09:36;;;;;;;3.00;2.13;;;;;;;14.02;57.33;101211.26;1687124;85;21340;-79
2022/07/06 02:12:02;;;;;;;3.80;2.08;;;;;;;14.06;57.37;101214.17;1686721;83;21098;-79
2022/07/06 02:14:30;;;;;;;6.60;2.10;;;;;;;14.10;57.42;101210.63;1618991;87;21478;-79
2022/07/06 02:16:56;;;;;;;2.83;2.50;;;;;;;14.12;57.42;101213.19;1624939;86;21034;-79
2022/07/06 02:19:22;;;;;;;2.20;2.10;;;;;;;14.05;57.38;101216.36;1644564;86;21442;-79
2022/07/06 02:21:48;;;;;;;4.27;2.60;;;;;;;13.95;57.47;101216.61;1637049;85;20930;-79
2022/07/06 02:24:14;;;;;;;2.70;2.50;;;;;;;13.88;57.57;101215.88;1626414;86;21420;-79
2022/07/06 02:26:40;;;;;;;7.53;2.40;;;;;;;13.85;57.73;101220.70;1626446;88;20930;-79
2022/07/06 02:29:06;;;;;;;4.20;2.10;;;;;;;13.80;57.82;101223.83;1626930;86;20875;-79
2022/07/06 02:31:32;;;;;;;3.63;2.50;;;;;;;13.79;57.93;101215.62;1631860;85;415634;-79
2022/07/06 02:34:00;;;;;;;2.60;2.02;;;;;;;13.82;58.02;101225.09;1590922;89;21514;-79
2022/07/06 02:36:26;;;;;;;3.40;2.40;;;;;;;13.81;58.04;101220.34;1577423;89;21545;-79
2022/07/06 02:38:52;;;;;;;2.83;2.62;;;;;;;13.85;58.19;101218.54;1612733;88;21113;-79
2022/07/06 02:41:19;;;;;;;2.43;2.23;;;;;;;13.88;58.20;101218.48;1605353;87;21432;-79
2022/07/06 02:43:44;;;;;;;2.50;2.12;;;;;;;13.88;58.17;101214.58;1643042;86;21141;-79
2022/07/06 02:46:10;;;;;;;1.93;1.83;;;;;;;13.82;58.22;101218.16;1579899;88;21845;-80
2022/07/06 02:48:37;;;;;;;3.63;2.27;;;;;;;13.81;58.35;101217.73;1617127;88;21009;-79
2022/07/06 02:51:17;;;;;;;3.67;2.27;;;;;;;13.79;58.45;101216.06;1626646;88;21108;-79
2022/07/06 02:53:43;;;;;;;4.33;2.67;;;;;;;13.81;58.58;101217.73;1591936;88;21069;-80
2022/07/06 02:56:09;;;;;;;6.30;2.67;;;;;;;13.80;58.62;101225.57;1625765;88;21116;-79
2022/07/06 02:58:35;;;;;;;2.40;2.20;;;;;;;13.84;58.75;101228.08;1617086;88;21145;-79
2022/07/06 03:01:01;;;;;;;2.93;2.33;;;;;;;13.94;58.83;101234.40;1609970;88;21305;-79
2022/07/06 03:03:27;;;;;;;2.60;2.40;;;;;;;13.99;58.82;101239.06;1601683;87;21061;-79
2022/07/06 03:05:53;;;;;;;2.37;2.17;;;;;;;14.02;58.94;101237.70;1632007;86;21119;-79
2022/07/06 03:08:19;;;;;;;2.47;2.27;;;;;;;14.09;59.01;101240.12;1592020;87;21516;-79
2022/07/06 03:10:55;;;;;;;2.77;2.42;;;;;;;14.12;59.04;101236.59;1603189;88;21052;-79
2022/07/06 03:13:20;;;;;;;2.10;2.00;;;;;;;14.13;59.08;101238.31;1599350;88;20925;-79
2022/07/06 03:15:46;;;;;;;3.10;2.50;;;;;;;14.14;59.15;101237.42;1588179;88;21215;-79
2022/07/06 03:18:12;;;;;;;3.63;2.23;;;;;;;14.15;59.22;101236.53;1577589;89;21086;-79
2022/07/06 03:20:38;;;;;;;3.37;1.87;;;;;;;14.17;59.28;101229.55;1605030;88;21113;-79
2022/07/06 03:23:08;;;;;;;2.62;2.33;;;;;;;14.10;59.38;101215.83;1598618;89;21543;-79
2022/07/06 03:25:33;;;;;;;2.95;2.50;;;;;;;14.24;59.47;101237.20;1595688;88;21081;-79
2022/07/06 03:27:59;;;;;;;3.53;2.37;;;;;;;14.27;59.55;101235.42;1574263;89;21052;-79
2022/07/06 03:30:26;;;;;;;7.15;2.40;;;;;;;14.31;59.62;101235.77;1613270;88;21074;-79
2022/07/06 03:32:52;;;;;;;3.00;2.33;;;;;;;14.34;59.69;101235.70;1604750;88;21449;-79
2022/07/06 03:35:18;;;;;;;2.77;2.57;;;;;;;14.37;59.74;101235.64;1590336;87;21543;-79
2022/07/06 03:37:44;;;;;;;3.70;2.42;;;;;;;14.40;59.80;101242.94;1593022;88;21009;-79
2022/07/06 03:40:12;;;;;;;4.50;2.33;;;;;;;14.45;59.89;101238.52;1586932;90;21026;-79
2022/07/06 03:42:38;;;;;;;3.17;2.12;;;;;;;14.49;59.90;101243.22;1630573;87;20962;-79
2022/07/06 03:45:05;;;;;;;3.58;2.50;;;;;;;14.51;59.94;101240.14;1615739;87;20943;-79
2022/07/06 03:47:31;;;;;;;3.87;2.75;;;;;;;14.53;60.03;101231.41;1613424;88;20979;-79
2022/07/06 03:49:57;;;;;;;2.67;2.47;;;;;;;14.58;60.12;101230.82;1613854;87;20954;-79
2022/07/06 03:52:23;;;;;;;3.40;2.43;;;;;;;14.64;60.12;101239.39;1602310;87;20947;-79
2022/07/06 03:55:01;;;;;;;2.42;2.22;;;;;;;14.67;60.15;101229.76;1613505;87;20932;-79
2022/07/06 03:57:27;;;;;;;2.43;2.20;;;;;;;14.69;60.20;101234.48;1606908;88;20987;-79
2022/07/06 03:59:53;;;;;;;3.57;2.30;;;;;;;14.70;60.18;101232.30;1588486;88;20899;-79
2022/07/06 04:02:19;;;;;;;3.13;2.07;;;;;;;14.74;60.22;101236.98;1588445;90;21003;-79
2022/07/06 04:04:45;;;;;;;3.73;2.10;;;;;;;14.72;60.28;101231.81;1600811;89;20944;-79
2022/07/06 04:07:11;;;;;;;3.63;2.20;;;;;;;14.70;60.28;101227.53;1611202;88;20899;-79
2022/07/06 04:09:37;;;;;;;3.50;2.57;;;;;;;14.69;60.37;101231.03;1613574;87;20923;-79
2022/07/06 04:12:04;;;;;;;5.03;2.67;;;;;;;14.69;60.49;101227.13;1611165;87;21342;-80
2022/07/06 04:14:30;;;;;;;5.00;3.45;;;;;;;14.84;60.66;101230.23;1586648;88;21454;-80
2022/07/06 04:17:51;;;;;;;5.33;2.60;;;;;;;15.05;60.83;101226.70;1593850;88;21094;-80
2022/07/06 04:19:32;;;;;;;2.90;2.70;;;;;;;15.32;60.80;101237.70;1602870;88;21158;-80
2022/07/06 04:21:58;;;;;;;6.80;2.50;;;;;;;15.51;60.76;101232.88;1612223;88;21722;-80
2022/07/06 04:24:25;;;;;;;2.87;2.50;;;;;;;15.63;60.70;101229.94;1611949;87;21633;-80
2022/07/06 04:26:51;;;;;;;6.30;2.63;;;;;;;15.75;60.72;101232.66;1612110;87;20955;-80
2022/07/06 04:29:17;;;;;;;4.40;2.90;;;;;;;15.83;60.76;101228.95;1587049;88;21711;-80
2022/07/06 04:31:42;;;;;;;5.00;3.63;;;;;;;15.88;60.80;101216.64;1587398;88;21643;-80
2022/07/06 04:34:08;;;;;;;7.83;3.00;;;;;;;15.97;60.82;101221.19;1605313;88;20926;-80
2022/07/06 04:36:34;;;;;;;5.57;3.37;;;;;;;16.05;60.89;101221.38;1597090;88;21691;-80
2022/07/06 04:39:01;;;;;;;4.20;3.63;;;;;;;16.14;60.88;101220.22;1587257;89;21071;-80
2022/07/06 04:41:26;;;;;;;5.40;3.30;;;;;;;16.23;60.90;101222.11;1604391;87;20958;-80
2022/07/06 04:43:53;;;;;;;10.57;3.80;;;;;;;16.32;60.91;101220.13;1638893;87;20908;-80
2022/07/06 04:46:19;;;;;;;6.50;3.60;;;;;;;16.40;60.93;101225.53;1603511;87;21169;-80
2022/07/06 04:48:45;;;;;;;5.92;3.33;;;;;;;16.49;60.97;101221.33;1592157;88;21252;-80
2022/07/06 04:51:11;;;;;;;6.97;3.83;;;;;;;16.61;60.99;101223.16;1596313;88;21407;-80
2022/07/06 04:53:37;;;;;;;8.20;3.70;;;;;;;16.71;61.00;101216.30;1587577;90;21784;-80
2022/07/06 04:56:04;;;;;;;3.73;3.43;;;;;;;16.81;61.04;101214.25;1598828;88;20915;-80
2022/07/06 04:58:30;;;;;;;5.22;3.35;;;;;;;16.93;61.06;101209.09;1587044;89;21703;-80
2022/07/06 05:00:56;;;;;;;;;;;;;;;17.09;61.09;101214.20;1589152;88;21526;-80
2022/07/06 05:03:22;;;;;;;11.13;4.03;;;;;;;17.28;61.55;101213.11;1587188;88;20202;-80
2022/07/06 05:05:48;;;;;;;4.12;3.60;;;;;;;17.45;61.05;101214.24;1587098;88;21521;-81
2022/07/06 05:08:15;;;;;;;5.20;3.40;;;;;;;17.72;61.17;101210.25;1586866;88;21575;-81
2022/07/06 05:10:41;;;;;;;3.83;3.27;;;;;;;18.20;61.30;101208.88;1600138;87;21748;-81
2022/07/06 05:13:07;;;;;;;11.53;3.87;;;;;;;18.72;61.24;101206.84;1597649;87;21541;-81
2022/07/06 05:15:33;;;;;;;4.60;2.90;;;;;;;19.28;61.10;101214.96;1587335;88;21002;-81
2022/07/06 05:17:59;;;;;;;4.77;2.80;;;;;;;19.75;60.80;101210.77;1587419;88;21037;-81
2022/07/06 05:20:31;;;;;;;7.67;2.67;;;;;;;19.98;60.74;101208.40;1592746;88;21559;-81
2022/07/06 05:22:57;;;;;;;3.50;3.17;;;;;;;20.33;60.73;101208.05;1587437;88;21593;-81
2022/07/06 05:25:23;;;;;;;3.60;2.90;;;;;;;20.63;60.60;101212.36;1587398;89;21097;-81
2022/07/06 05:28:07;;;;;;;4.55;3.05;;;;;;;20.86;60.56;101204.17;1595613;88;21554;-81
2022/07/06 05:30:33;;;;;;;6.77;2.87;;;;;;;21.02;60.40;101203.80;1588966;88;21704;-81
2022/07/06 05:32:59;;;;;;;4.37;2.83;;;;;;;21.24;60.37;101208.02;1586921;89;21562;-81
2022/07/06 05:35:25;;;;;;;8.83;3.12;;;;;;;21.29;60.26;101204.23;1587202;88;21618;-81
2022/07/06 05:37:51;;;;;;;4.85;2.83;;;;;;;21.54;60.45;101206.41;1586882;87;21109;-81
2022/07/06 05:40:17;;;;;;;4.87;2.50;;;;;;;21.97;60.32;101203.64;1592930;88;21715;-81
2022/07/06 05:42:43;;;;;;;4.03;2.85;;;;;;;22.44;60.21;101201.51;1615805;87;21603;-81
2022/07/06 05:45:13;;;;;;;8.48;3.00;;;;;;;22.94;60.07;101210.50;1612032;87;21586;-81
2022/07/06 05:50:23;;;;;;;5.72;2.60;;;;;;;23.50;59.42;101210.23;1603158;87;21464;-81
2022/07/06 05:53:03;;;;;;;3.33;2.33;;;;;;;23.74;59.47;101203.49;1613707;87;21427;-82
2022/07/06 05:55:33;;;;;;;3.47;2.55;;;;;;;24.16;59.44;101198.24;1603548;88;21762;-82
2022/07/06 05:57:59;;;;;;;5.47;2.42;;;;;;;24.63;59.17;101207.94;1612221;88;21432;-82
2022/07/06 06:00:27;;;;;;;5.37;2.40;;;;;;;25.05;58.93;101200.30;1592028;88;21484;-82
2022/07/06 06:02:53;;;;;;;3.58;2.70;;;;;;;25.55;58.73;101199.94;1609378;87;20965;-82
2022/07/06 06:05:20;;;;;;;5.70;2.22;;;;;;;25.83;58.30;101203.34;1612955;88;21422;-82
2022/07/06 06:07:52;;;;;;;6.87;2.80;;;;;;;25.77;57.86;101201.98;1606954;88;21505;-82
2022/07/06 06:10:21;;;;;;;4.10;2.30;;;;;;;25.48;57.83;101203.97;1588423;88;20923;-81
2022/07/06 06:12:48;;;;;;;6.37;2.35;;;;;;;25.13;57.78;101205.55;1604913;87;22179;-81
2022/07/06 06:15:14;;;;;;;5.67;2.67;;;;;;;24.80;57.74;101208.63;1588331;88;20907;-81
2022/07/06 06:17:40;;;;;;;6.12;2.35;;;;;;;24.48;57.49;101202.80;1588365;88;20946;-81
2022/07/06 06:20:09;;;;;;;3.72;2.27;;;;;;;24.12;57.55;101208.16;1605484;88;21456;-81
2022/07/06 06:22:53;;;;;;;4.53;2.37;;;;;;;23.66;57.36;101189.06;1613529;87;21456;-81
2022/07/06 06:25:32;;;;;;;3.20;2.27;;;;;;;23.66;57.36;101189.06;1613460;87;21376;-81
2022/07/06 06:28:00;;;;;;;5.70;2.37;;;;;;;23.65;57.22;101200.09;1605821;88;20974;-81
2022/07/06 06:30:26;;;;;;;3.10;2.17;;;;;;;23.54;57.11;101206.50;1599254;88;21436;-81
2022/07/06 06:33:12;;;;;;;3.90;2.22;;;;;;;23.49;56.95;101206.36;1587769;89;20990;-81
2022/07/06 06:35:52;;;;;;;5.20;2.00;;;;;;;23.37;56.75;101211.47;1588759;88;21010;-81
2022/07/06 06:38:20;;;;;;;;;;;;;;;23.24;56.68;101212.28;1600841;88;21109;-81
2022/07/06 06:40:48;;;;;;;6.00;2.70;;;;;;;23.07;56.46;101214.59;1589813;87;20202;-81
2022/07/06 06:43:14;;;;;;;7.17;2.07;;;;;;;22.84;56.56;101209.83;1619349;87;21009;-81
2022/07/06 06:45:40;;;;;;;2.47;2.27;;;;;;;22.63;56.63;101208.77;1603093;85;21002;-81
2022/07/06 06:48:06;;;;;;;4.92;2.50;;;;;;;22.43;56.66;101205.08;1611582;86;21062;-81
2022/07/06 06:50:33;;;;;;;5.97;2.67;;;;;;;22.27;56.74;101206.89;1611038;88;21058;-81
2022/07/06 06:52:59;;;;;;;3.42;2.55;;;;;;;22.15;56.87;101213.69;1598503;88;21126;-81
2022/07/06 06:55:25;;;;;;;3.17;2.50;;;;;;;22.02;56.88;101211.33;1587591;90;21062;-81
2022/07/06 06:57:51;;;;;;;7.25;2.65;;;;;;;21.85;56.91;101215.30;1593288;88;21101;-81
2022/07/06 07:00:18;;;;;;;7.03;2.70;;;;;;;21.70;56.95;101211.73;1587511;89;21146;-81
2022/07/06 07:02:46;;;;;;;6.30;3.40;;;;;;;21.51;57.02;101217.56;1598601;87;21134;-81
2022/07/06 07:05:12;;;;;;;6.03;2.87;;;;;;;21.34;57.11;101219.28;1605556;88;21066;-81
2022/07/06 07:07:38;;;;;;;6.30;2.33;;;;;;;21.25;57.25;101214.98;1612770;88;21117;-81
2022/07/06 07:10:06;;;;;;;5.63;3.10;;;;;;;21.11;57.25;101213.86;1613053;88;21078;-81
2022/07/06 07:12:33;;;;;;;5.87;2.50;;;;;;;20.98;57.37;101212.77;1632916;87;21123;-81
2022/07/06 07:14:59;;;;;;;;;;;;;;;20.90;57.53;101217.55;1612773;87;21154;-81
2022/07/06 07:17:25;;;;;;;7.35;2.62;;;;;;;20.86;58.13;101216.00;1612710;88;20160;-81
2022/07/06 07:19:51;;;;;;;5.67;2.60;;;;;;;20.79;57.67;101210.23;1612952;88;20970;-81
2022/07/06 07:22:17;;;;;;;7.20;2.90;;;;;;;20.76;57.82;101211.69;1608572;88;21038;-81
2022/07/06 07:24:43;;;;;;;4.87;2.60;;;;;;;20.75;57.87;101209.13;1587375;88;21090;-81
2022/07/06 07:27:10;;;;;;;5.80;3.10;;;;;;;20.75;57.93;101221.81;1587589;90;21759;-81
2022/07/06 07:29:36;;;;;;;7.42;2.95;;;;;;;20.78;58.10;101216.87;1598022;88;21138;-81
2022/07/06 07:32:02;;;;;;;4.80;2.87;;;;;;;20.86;58.18;101218.63;1612409;87;21101;-81
2022/07/06 07:34:28;;;;;;;5.47;2.20;;;;;;;21.07;58.46;101221.98;1612712;88;21360;-81
2022/07/06 07:36:55;;;;;;;3.77;2.52;;;;;;;21.33;58.57;101209.69;1615570;87;21062;-81
2022/07/06 07:39:21;;;;;;;6.12;2.60;;;;;;;21.76;58.55;101206.99;1587107;90;21133;-81
2022/07/06 07:41:50;;;;;;;3.07;1.57;;;;;;;22.04;58.45;101216.05;1601353;87;21079;-81
2022/07/06 07:44:17;;;;;;;5.08;1.65;;;;;;;22.01;57.78;101224.97;1587283;88;21561;-81
2022/07/06 07:46:43;;;;;;;6.12;1.52;;;;;;;21.79;57.71;101225.72;1587175;88;26825;-81
2022/07/06 07:49:09;;;;;;;5.40;1.20;;;;;;;21.55;57.73;101221.27;1587369;89;21041;-81
2022/07/06 07:51:35;;;;;;;4.80;1.00;;;;;;;21.27;57.44;101233.70;1587393;89;21102;-81
2022/07/06 07:54:02;;;;;;;3.10;1.10;;;;;;;20.98;56.94;101235.12;1602116;88;21843;-81
2022/07/06 07:56:40;;;;;;;2.10;0.72;;;;;;;20.64;57.09;101243.81;1594125;88;21130;-81
2022/07/06 07:59:07;;;;;;;8.77;0.73;;;;;;;20.50;57.15;101250.19;1593026;88;21130;-81
2022/07/06 08:01:34;;;;;;;10.03;1.07;;;;;;;20.32;56.76;101251.86;1587247;88;21017;-81
2022/07/06 08:04:00;;;;;;;2.72;0.60;;;;;;;20.22;56.82;101249.75;1587391;90;21820;-81
2022/07/06 08:06:26;;;;;;;2.92;0.95;;;;;;;20.09;56.47;101252.94;1587237;88;21327;-81
2022/07/06 08:08:52;;;;;;;2.73;0.70;;;;;;;20.00;56.64;101254.66;1587727;88;21462;-81
2022/07/06 08:11:19;;;;;;;2.45;0.70;;;;;;;19.92;56.33;101255.92;1591296;87;21078;-81
2022/07/06 08:13:45;;;;;;;6.43;0.73;;;;;;;19.78;56.29;101260.01;1587455;88;21150;-80
2022/07/06 08:16:11;;;;;;;1.63;0.60;;;;;;;19.75;56.37;101264.57;1593271;88;21169;-80
2022/07/06 08:18:38;;;;;;;1.17;0.68;;;;;;;19.69;56.19;101262.21;1612780;88;21130;-80
2022/07/06 08:21:05;;;;;;;1.13;0.70;;;;;;;19.60;56.11;101262.61;1601875;88;21121;-80
2022/07/06 08:23:34;;;;;;;2.42;0.60;;;;;;;19.56;56.10;101264.97;1612384;88;21010;-80
2022/07/06 08:26:07;;;;;;;5.62;0.70;;;;;;;19.57;56.08;101266.67;1612443;88;21093;-80
2022/07/06 08:28:33;;;;;;;3.10;0.72;;;;;;;19.57;55.97;101261.42;1612577;88;21094;-80
2022/07/06 08:30:59;;;;;;;2.77;0.70;;;;;;;19.57;55.92;101257.03;1592076;88;21103;-80
2022/07/06 08:33:26;;;;;;;1.32;0.82;;;;;;;19.62;55.88;101255.06;1631921;87;21112;-80
2022/07/06 08:35:52;;;;;;;2.87;0.70;;;;;;;19.68;55.77;101258.73;1634235;87;21096;-81
2022/07/06 08:38:18;;;;;;;2.23;0.80;;;;;;;19.74;55.68;101258.47;1615117;87;21080;-81
2022/07/06 08:40:49;;;;;;;2.17;0.80;;;;;;;19.85;55.70;101259.28;1623095;86;21125;-81
2022/07/06 08:43:16;;;;;;;3.47;0.90;;;;;;;19.96;55.54;101253.09;1637107;86;21358;-81
2022/07/06 08:45:45;;;;;;;2.87;0.80;;;;;;;20.12;55.38;101252.80;1633294;87;21551;-81
2022/07/06 08:48:13;;;;;;;4.50;0.80;;;;;;;20.34;55.49;101246.53;1617878;87;21176;-82
2022/07/06 08:50:39;;;;;;;1.75;0.75;;;;;;;20.58;55.44;101249.83;1613510;87;21360;-81
2022/07/06 08:53:11;;;;;;;1.10;0.53;;;;;;;20.88;55.27;101251.42;1589841;89;21088;-81
2022/07/06 08:55:40;;;;;;;3.90;0.70;;;;;;;21.08;55.23;101253.47;1608123;88;21136;-81
2022/07/06 08:58:07;;;;;;;2.12;0.53;;;;;;;21.28;55.03;101255.14;1613015;87;21136;-81
2022/07/06 09:00:37;;;;;;;1.77;0.50;;;;;;;21.34;55.03;101252.62;1610408;87;21144;-81
2022/07/06 09:03:05;;;;;;;2.47;0.70;;;;;;;21.43;54.91;101258.74;1620435;87;21156;-81
2022/07/06 09:05:33;;;;;;;2.30;0.80;;;;;;;21.54;54.84;101256.41;1607537;87;21368;-81
2022/07/06 09:07:59;;;;;;;;;;;;;;;21.67;54.82;101261.91;1609965;88;21088;-81
2022/07/06 09:10:26;;;;;;;3.95;0.80;;;;;;;21.82;54.39;101252.36;1614760;87;20179;-81
2022/07/06 09:12:52;;;;;;;2.98;1.00;;;;;;;21.96;54.65;101253.77;1636052;86;26923;-81
2022/07/06 09:15:18;;;;;;;1.40;0.70;;;;;;;22.10;54.50;101248.18;1633859;87;21112;-81
2022/07/06 09:17:45;;;;;;;2.40;0.80;;;;;;;22.20;54.43;101243.27;1627414;87;21294;-81
2022/07/06 09:20:13;;;;;;;2.15;0.98;;;;;;;22.23;54.27;101242.25;1628988;87;21077;-81
2022/07/06 09:22:41;;;;;;;4.12;0.60;;;;;;;22.21;54.21;101244.11;1628943;87;21525;-81
2022/07/06 09:25:11;;;;;;;4.47;0.90;;;;;;;22.20;54.05;101239.78;1607616;87;21185;-81
2022/07/06 09:27:41;;;;;;;2.62;0.80;;;;;;;22.21;53.86;101238.38;1607972;87;21076;-81
2022/07/06 09:30:09;;;;;;;2.65;0.70;;;;;;;22.18;53.69;101235.06;1626396;87;20986;-81
2022/07/06 09:32:46;;;;;;;1.72;0.80;;;;;;;22.20;53.69;101240.63;1625865;87;20960;-81
2022/07/06 09:35:30;;;;;;;5.55;0.90;;;;;;;22.28;53.61;101237.11;1611659;87;20975;-81
2022/07/06 09:38:12;;;;;;;1.42;0.70;;;;;;;22.19;53.27;101239.40;1599340;88;20963;-81
2022/07/06 09:40:42;;;;;;;2.67;0.70;;;;;;;22.21;53.14;101242.80;1599032;88;21032;-81
2022/07/06 09:43:22;;;;;;;6.45;1.67;;;;;;;22.21;53.03;101241.02;1588374;88;20923;-81
2022/07/06 09:45:54;;;;;;;2.15;1.00;;;;;;;22.25;53.03;101238.59;1612767;88;20927;-81
2022/07/06 09:48:28;;;;;;;2.95;0.70;;;;;;;22.31;52.90;101241.36;1611536;88;20951;-81
2022/07/06 09:50:59;;;;;;;3.72;0.82;;;;;;;22.34;52.80;101235.92;1612774;87;21077;-81
2022/07/06 09:53:27;;;;;;;2.65;0.72;;;;;;;22.33;52.54;101236.86;1599553;88;20988;-81
2022/07/06 09:55:55;;;;;;;;;;;;;;;22.28;52.35;101248.12;1611129;87;21125;-81
2022/07/06 09:58:22;;;;;;;2.10;0.62;;;;;;;22.24;51.84;101245.27;1592287;88;20206;-81
2022/07/06 10:00:49;;;;;;;4.35;0.57;;;;;;;22.23;51.63;101239.15;1586712;90;21093;-81
2022/07/06 10:03:17;;;;;;;2.20;0.70;;;;;;;22.24;51.80;101243.95;1588108;90;20954;-81
2022/07/06 10:05:47;;;;;;;1.40;0.60;;;;;;;22.21;51.57;101236.21;1587901;88;21072;-81
2022/07/06 10:08:15;;;;;;;2.12;0.60;;;;;;;22.23;51.60;101238.30;1586566;89;21129;-81
2022/07/06 10:10:43;;;;;;;2.02;0.70;;;;;;;22.18;51.22;101235.06;1593105;87;20954;-81
2022/07/06 10:13:12;;;;;;;1.85;0.57;;;;;;;22.14;51.18;101237.02;1602340;88;21125;-81
2022/07/06 10:15:39;;;;;;;0.88;0.60;;;;;;;22.13;51.03;101238.80;1613584;87;20959;-81
2022/07/06 10:18:09;;;;;;;3.67;0.72;;;;;;;22.12;50.70;101233.14;1613572;88;21003;-81
2022/07/06 10:20:38;;;;;;;1.62;0.70;;;;;;;22.12;50.83;101237.09;1603095;87;20939;-81
2022/07/06 10:23:06;;;;;;;2.15;1.15;;;;;;;22.10;50.65;101232.84;1613153;88;20943;-81
2022/07/06 10:25:34;;;;;;;1.10;0.60;;;;;;;22.11;50.43;101237.17;1613572;88;20992;-81
2022/07/06 10:28:00;;;;;;;9.35;0.80;;;;;;;22.14;50.57;101231.74;1602324;88;21499;-81
2022/07/06 10:30:28;;;;;;;2.83;0.82;;;;;;;22.20;50.21;101227.45;1598372;87;26786;-81
2022/07/06 10:32:57;;;;;;;1.75;0.75;;;;;;;22.12;50.28;101219.97;1598459;88;21014;-81
2022/07/06 10:35:23;;;;;;;2.12;0.70;;;;;;;22.17;50.31;101214.92;1589601;88;21671;-81
2022/07/06 10:38:09;;;;;;;0.73;0.53;;;;;;;22.26;50.24;101217.05;1578702;89;21002;-81
2022/07/06 10:43:23;;;;;;;1.75;0.75;;;;;;;22.32;50.00;101222.84;1588507;88;20903;-81
2022/07/06 10:45:52;;;;;;;2.75;0.60;;;;;;;22.28;49.94;101219.98;1588530;88;20954;-81
2022/07/06 10:48:20;;;;;;;2.30;0.72;;;;;;;22.29;49.93;101223.47;1588328;88;21437;-81
2022/07/06 10:51:01;;;;;;;6.20;0.60;;;;;;;22.25;49.76;101217.98;1588606;89;20978;-81
2022/07/06 10:53:30;;;;;;;3.08;0.70;;;;;;;22.13;49.25;101219.50;1591698;88;21294;-81
2022/07/06 10:55:57;;;;;;;2.58;0.80;;;;;;;22.03;49.23;101214.34;1593448;88;20955;-81
2022/07/06 10:58:43;;;;;;;1.72;0.68;;;;;;;22.04;49.24;101218.69;1593193;88;20942;-81
2022/07/06 11:01:11;;;;;;;3.35;0.53;;;;;;;22.05;49.09;101221.23;1613395;88;20939;-81
2022/07/06 11:04:00;;;;;;;1.62;0.70;;;;;;;21.96;48.71;101221.70;1613950;88;21418;-81
2022/07/06 11:06:27;;;;;;;2.47;0.60;;;;;;;21.91;48.82;101222.41;1603418;88;21030;-81
2022/07/06 11:08:58;;;;;;;2.37;0.60;;;;;;;21.92;48.68;101223.26;1614053;88;20971;-81
2022/07/06 11:11:40;;;;;;;4.25;0.72;;;;;;;21.93;48.49;101221.01;1622028;87;20923;-81
2022/07/06 11:14:18;;;;;;;4.53;0.40;;;;;;;21.89;48.39;101216.84;1605361;88;20888;-80
2022/07/06 11:16:52;;;;;;;1.52;0.50;;;;;;;21.94;48.36;101216.13;1614065;88;20899;-80
2022/07/06 11:19:25;;;;;;;2.52;0.80;;;;;;;22.01;48.03;101223.65;1602863;88;20954;-80
2022/07/06 11:22:02;;;;;;;2.70;0.60;;;;;;;21.99;47.66;101230.75;1597713;88;20950;-80
2022/07/06 11:24:33;;;;;;;2.08;0.62;;;;;;;21.99;47.86;101229.44;1606902;88;20987;-80
2022/07/06 11:27:01;;;;;;;1.37;0.80;;;;;;;21.95;47.50;101231.00;1612533;89;20975;-80
2022/07/06 11:29:29;;;;;;;3.30;0.50;;;;;;;21.92;47.45;101228.52;1603184;88;20935;-80
2022/07/06 11:32:00;;;;;;;7.30;0.72;;;;;;;21.90;47.35;101233.87;1613696;88;20958;-80
2022/07/06 11:34:28;;;;;;;1.02;0.50;;;;;;;;;;1602327;87;20904;-80
2022/07/06 11:36:59;;;;;;;1.00;0.47;;;;;;;21.90;46.94;101227.75;1613716;88;20942;-80